createdAt,value
2022-12-07T00:00:11.165Z,2.57
2022-12-07T00:03:00.532Z,2.58
2022-12-07T00:05:31.458Z,2.58
2022-12-07T00:08:00.914Z,2.58
2022-12-07T00:10:29.918Z,2.60
2022-12-07T00:12:59.202Z,2.61
2022-12-07T00:15:29.754Z,2.59
2022-12-07T00:17:59.056Z,2.57
2022-12-07T00:20:28.158Z,2.56
2022-12-07T00:22:57.552Z,2.60
2022-12-07T00:25:26.678Z,2.60
2022-12-07T00:27:57.577Z,2.59
2022-12-07T00:30:28.284Z,2.61
2022-12-07T00:32:57.651Z,2.58
2022-12-07T00:35:26.736Z,2.48
2022-12-07T00:37:56.112Z,2.42
2022-12-07T00:40:25.113Z,2.43
2022-12-07T00:42:54.436Z,2.44
2022-12-07T00:45:23.436Z,2.42
2022-12-07T00:47:54.190Z,2.44
2022-12-07T00:50:23.216Z,2.44
2022-12-07T00:52:52.629Z,2.45
2022-12-07T00:55:21.644Z,2.48
2022-12-07T00:57:50.928Z,2.49
2022-12-07T01:00:20.382Z,2.48
2022-12-07T01:02:49.779Z,2.44
2022-12-07T01:05:20.554Z,2.47
2022-12-07T01:07:49.984Z,2.49
2022-12-07T01:10:19.285Z,2.49
2022-12-07T01:12:48.755Z,2.50
2022-12-07T01:15:17.942Z,2.47
2022-12-07T01:17:47.436Z,2.49
2022-12-07T01:20:17.489Z,2.47
2022-12-07T01:22:48.391Z,2.46
2022-12-07T01:25:17.477Z,2.44
2022-12-07T01:27:46.875Z,2.40
2022-12-07T01:30:16.505Z,2.40
2022-12-07T01:32:45.843Z,2.30
2022-12-07T01:35:14.863Z,2.21
2022-12-07T01:37:44.245Z,2.15
2022-12-07T01:40:16.012Z,2.26
2022-12-07T01:42:45.284Z,2.24
2022-12-07T01:45:39.306Z,2.24
2022-12-07T01:48:10.025Z,2.25
2022-12-07T01:50:40.538Z,2.18
2022-12-07T01:53:12.216Z,2.10
2022-12-07T01:55:46.175Z,2.12
2022-12-07T01:58:17.239Z,2.13
2022-12-07T02:00:46.686Z,2.11
2022-12-07T02:03:20.971Z,2.05
2022-12-07T02:05:51.211Z,2.02
2022-12-07T02:08:21.021Z,2.05
2022-12-07T02:10:51.503Z,2.11
2022-12-07T02:13:24.137Z,2.07
2022-12-07T02:16:20.526Z,2.08
2022-12-07T02:19:02.784Z,2.09
2022-12-07T02:21:42.161Z,2.16
2022-12-07T02:24:37.815Z,2.16
2022-12-07T02:27:29.610Z,2.13
2022-12-07T02:30:04.146Z,2.25
2022-12-07T02:32:44.832Z,2.25
2022-12-07T02:35:19.511Z,2.29
2022-12-07T02:38:00.540Z,2.32
2022-12-07T02:40:37.163Z,2.35
2022-12-07T02:43:12.342Z,2.34
2022-12-07T02:45:46.596Z,2.33
2022-12-07T02:48:18.676Z,2.19
2022-12-07T02:50:50.740Z,2.27
2022-12-07T02:53:36.779Z,2.19
2022-12-07T02:56:13.007Z,2.21
2022-12-07T02:58:57.097Z,2.29
2022-12-07T03:01:37.472Z,2.38
2022-12-07T03:04:23.179Z,2.31
2022-12-07T03:07:00.291Z,2.35
2022-12-07T03:09:37.151Z,2.27
2022-12-07T03:12:15.125Z,2.18
2022-12-07T03:14:51.317Z,2.11
2022-12-07T03:17:27.343Z,2.23
2022-12-07T03:20:01.275Z,2.22
2022-12-07T03:22:35.620Z,2.28
2022-12-07T03:25:08.543Z,2.30
2022-12-07T03:27:43.239Z,2.25
2022-12-07T03:30:16.992Z,2.20
2022-12-07T03:32:52.018Z,2.24
2022-12-07T03:35:25.718Z,2.15
2022-12-07T03:37:59.373Z,2.08
2022-12-07T03:40:36.971Z,2.11
2022-12-07T03:43:07.071Z,2.13
2022-12-07T03:45:43.291Z,2.16
2022-12-07T03:48:24.927Z,2.25
2022-12-07T03:50:59.346Z,2.24
2022-12-07T03:53:36.783Z,2.21
2022-12-07T03:56:06.791Z,2.22
2022-12-07T03:58:36.447Z,2.25
2022-12-07T04:01:06.044Z,2.23
2022-12-07T04:03:36.924Z,2.27
2022-12-07T04:06:06.413Z,2.31
2022-12-07T04:08:35.788Z,2.24
2022-12-07T04:11:04.873Z,2.29
2022-12-07T04:13:54.379Z,2.22
2022-12-07T04:16:23.678Z,2.18
2022-12-07T04:18:54.521Z,2.27
2022-12-07T04:21:23.614Z,2.23
2022-12-07T04:23:52.985Z,2.22
2022-12-07T04:26:22.048Z,2.28
2022-12-07T04:28:51.675Z,2.31
2022-12-07T04:31:20.678Z,2.32
2022-12-07T04:33:50.129Z,2.27
2022-12-07T04:36:21.478Z,2.24
2022-12-07T04:38:50.833Z,2.15
2022-12-07T04:41:19.813Z,2.19
2022-12-07T04:43:49.108Z,2.17
2022-12-07T04:46:18.094Z,2.18
2022-12-07T04:48:47.507Z,2.22
2022-12-07T04:51:17.865Z,2.27
2022-12-07T04:53:48.673Z,2.29
2022-12-07T04:56:18.348Z,2.36
2022-12-07T04:58:49.042Z,2.34
2022-12-07T05:01:18.469Z,2.32
2022-12-07T05:03:48.088Z,2.36
2022-12-07T05:06:17.455Z,2.39
2022-12-07T05:08:48.396Z,2.43
2022-12-07T05:11:31.939Z,2.46
2022-12-07T05:14:02.341Z,2.43
2022-12-07T05:16:31.643Z,2.43
2022-12-07T05:19:01.841Z,2.50
2022-12-07T05:21:30.838Z,2.47
2022-12-07T05:24:01.708Z,2.44
2022-12-07T05:26:30.964Z,2.47
2022-12-07T05:29:00.929Z,2.43
2022-12-07T05:31:30.262Z,2.40
2022-12-07T05:33:59.639Z,2.41
2022-12-07T05:36:29.678Z,2.48
2022-12-07T05:39:00.629Z,2.40
2022-12-07T05:41:46.929Z,2.50
2022-12-07T05:44:16.477Z,2.54
2022-12-07T05:46:45.615Z,2.55
2022-12-07T05:49:14.955Z,2.49
2022-12-07T05:51:44.020Z,2.55
2022-12-07T05:54:14.844Z,2.59
2022-12-07T05:56:43.881Z,2.65
2022-12-07T05:59:25.301Z,2.48
2022-12-07T06:01:55.880Z,2.52
2022-12-07T06:04:27.014Z,2.58
2022-12-07T06:06:56.319Z,2.58
2022-12-07T06:09:28.567Z,2.59
2022-12-07T06:12:21.086Z,2.66
2022-12-07T06:14:50.529Z,2.68
2022-12-07T06:17:19.752Z,2.51
2022-12-07T06:19:49.212Z,2.51
2022-12-07T06:22:18.592Z,2.47
2022-12-07T06:24:49.420Z,2.54
2022-12-07T06:27:18.490Z,2.58
2022-12-07T06:29:48.084Z,2.65
2022-12-07T06:32:17.588Z,2.55
2022-12-07T06:34:47.684Z,2.49
2022-12-07T06:37:16.828Z,2.56
2022-12-07T06:39:46.663Z,2.53
2022-12-07T06:42:17.119Z,2.39
2022-12-07T06:44:46.466Z,2.40
2022-12-07T06:50:05.680Z,2.41
2022-12-07T06:52:34.958Z,2.46
2022-12-07T06:55:04.528Z,2.33
2022-12-07T06:57:34.926Z,2.39
2022-12-07T07:00:05.254Z,2.50
2022-12-07T07:02:34.575Z,2.52
2022-12-07T07:05:04.429Z,2.50
2022-12-07T07:07:46.343Z,2.51
2022-12-07T07:10:23.007Z,2.50
2022-12-07T07:12:57.326Z,2.39
2022-12-07T07:15:27.049Z,2.39
2022-12-07T07:17:56.218Z,2.56
2022-12-07T07:20:25.833Z,2.59
2022-12-07T07:22:58.178Z,2.55
2022-12-07T07:25:27.496Z,2.54
2022-12-07T07:27:57.871Z,2.57
2022-12-07T07:30:27.540Z,2.55
2022-12-07T07:33:00.123Z,2.57
2022-12-07T07:35:30.141Z,2.57
2022-12-07T07:37:59.354Z,2.62
2022-12-07T07:40:29.802Z,2.62
2022-12-07T07:43:00.602Z,2.64
2022-12-07T07:45:30.716Z,2.59
2022-12-07T07:47:59.805Z,2.64
2022-12-07T07:50:29.098Z,2.65
2022-12-07T07:52:59.838Z,2.66
2022-12-07T07:55:29.279Z,2.63
2022-12-07T07:57:59.701Z,2.65
2022-12-07T08:00:29.225Z,2.58
2022-12-07T08:02:58.312Z,2.57
2022-12-07T08:05:27.695Z,2.61
2022-12-07T08:07:56.787Z,2.48
2022-12-07T08:10:27.009Z,2.44
2022-12-07T08:13:14.819Z,2.32
2022-12-07T08:15:47.048Z,2.33
2022-12-07T08:18:17.176Z,2.40
2022-12-07T08:20:46.427Z,2.38
2022-12-07T08:23:16.024Z,2.44
2022-12-07T08:25:45.422Z,2.59
2022-12-07T08:28:14.416Z,2.50
2022-12-07T08:30:45.175Z,2.46
2022-12-07T08:33:14.258Z,2.48
2022-12-07T08:35:43.767Z,2.42
2022-12-07T08:38:12.841Z,2.44
2022-12-07T08:40:42.271Z,2.40
2022-12-07T08:43:11.321Z,2.47
2022-12-07T08:45:44.628Z,2.49
2022-12-07T08:48:18.306Z,2.46
2022-12-07T08:50:49.720Z,2.50
2022-12-07T08:53:19.314Z,2.59
2022-12-07T08:55:49.395Z,2.45
2022-12-07T08:58:18.589Z,2.53
2022-12-07T09:00:49.277Z,2.40
2022-12-07T09:03:18.432Z,2.39
2022-12-07T09:05:47.823Z,2.46
2022-12-07T09:08:17.599Z,2.43
2022-12-07T09:10:47.261Z,2.35
2022-12-07T09:13:16.395Z,2.36
2022-12-07T09:15:45.801Z,2.45
2022-12-07T09:18:16.241Z,2.47
2022-12-07T09:20:45.625Z,2.49
2022-12-07T09:23:14.847Z,2.40
2022-12-07T09:25:44.236Z,2.30
2022-12-07T09:28:13.339Z,2.27
2022-12-07T09:31:21.579Z,2.37
2022-12-07T09:33:38.694Z,2.30
2022-12-07T09:36:08.650Z,2.28
2022-12-07T09:38:37.785Z,2.34
2022-12-07T09:41:08.999Z,2.41
2022-12-07T09:43:41.069Z,2.36
2022-12-07T09:46:18.502Z,2.37
2022-12-07T09:48:50.014Z,2.35
2022-12-07T09:51:25.006Z,2.30
2022-12-07T09:53:57.272Z,2.38
2022-12-07T09:56:27.047Z,2.43
2022-12-07T09:59:01.766Z,2.50
2022-12-07T10:01:33.383Z,2.49
2022-12-07T10:04:12.753Z,2.40
2022-12-07T10:06:43.348Z,2.27
2022-12-07T10:09:12.751Z,2.40
2022-12-07T10:12:01.830Z,2.26
2022-12-07T10:15:05.652Z,2.40
2022-12-07T10:17:41.671Z,2.30
2022-12-07T10:20:25.141Z,2.29
2022-12-07T10:23:02.834Z,2.28
2022-12-07T10:25:34.858Z,2.27
2022-12-07T10:28:14.010Z,2.25
2022-12-07T10:31:03.261Z,2.33
2022-12-07T10:33:37.983Z,2.39
2022-12-07T10:36:24.096Z,2.41
2022-12-07T10:38:55.074Z,2.44
2022-12-07T10:41:24.206Z,2.52
2022-12-07T10:43:55.781Z,2.58
2022-12-07T10:46:47.354Z,2.47
2022-12-07T10:49:55.718Z,2.42
2022-12-07T10:52:39.245Z,2.45
2022-12-07T10:55:22.219Z,2.54
2022-12-07T10:58:08.849Z,2.39
2022-12-07T11:00:45.728Z,2.36
2022-12-07T11:03:33.355Z,2.52
2022-12-07T11:06:16.664Z,2.57
2022-12-07T11:09:03.177Z,2.52
2022-12-07T11:11:38.747Z,2.53
2022-12-07T11:14:21.022Z,2.57
2022-12-07T11:17:00.884Z,2.66
2022-12-07T11:19:53.115Z,2.67
2022-12-07T11:22:28.934Z,2.60
2022-12-07T11:25:05.009Z,2.63
2022-12-07T11:27:43.259Z,2.62
2022-12-07T11:30:19.507Z,2.65
2022-12-07T11:33:13.270Z,2.58
2022-12-07T11:35:56.823Z,2.63
2022-12-07T11:38:35.476Z,2.55
2022-12-07T11:41:14.721Z,2.60
2022-12-07T11:43:56.966Z,2.56
2022-12-07T11:46:32.353Z,2.55
2022-12-07T11:49:10.189Z,2.54
2022-12-07T11:51:43.026Z,2.41
2022-12-07T11:54:18.385Z,2.45
2022-12-07T11:56:59.145Z,2.36
2022-12-07T11:59:34.528Z,2.30
2022-12-07T12:02:17.617Z,2.22
2022-12-07T12:04:56.299Z,2.13
2022-12-07T12:10:23.219Z,2.22
2022-12-07T12:16:45.904Z,2.26
2022-12-07T12:19:27.240Z,2.18
2022-12-07T12:22:02.904Z,2.21
2022-12-07T12:24:37.550Z,2.27
2022-12-07T12:27:10.535Z,2.35
2022-12-07T12:29:42.408Z,2.31
2022-12-07T12:32:21.248Z,2.27
2022-12-07T12:35:24.166Z,2.23
2022-12-07T12:37:55.875Z,2.34
2022-12-07T12:40:50.725Z,2.40
2022-12-07T12:43:48.722Z,2.43
2022-12-07T12:46:58.480Z,2.41
2022-12-07T12:49:38.605Z,2.38
2022-12-07T12:52:50.910Z,2.40
2022-12-07T12:55:36.872Z,2.38
2022-12-07T12:58:31.169Z,2.40
2022-12-07T13:01:47.310Z,2.25
2022-12-07T13:04:35.165Z,2.30
2022-12-07T13:07:06.887Z,2.17
2022-12-07T13:09:38.400Z,2.30
2022-12-07T13:12:14.675Z,2.28
2022-12-07T13:14:59.289Z,2.32
2022-12-07T13:18:04.328Z,2.31
2022-12-07T13:20:55.355Z,2.27
2022-12-07T13:23:36.165Z,2.30
2022-12-07T13:26:19.237Z,2.28
2022-12-07T13:28:50.924Z,2.24
2022-12-07T13:31:36.027Z,2.30
2022-12-07T13:34:07.149Z,2.31
2022-12-07T13:36:40.314Z,2.23
2022-12-07T13:39:23.743Z,2.31
2022-12-07T13:41:55.952Z,2.32
2022-12-07T13:44:27.405Z,2.37
2022-12-07T13:47:08.423Z,2.40
2022-12-07T13:49:53.137Z,2.40
2022-12-07T13:52:25.929Z,2.35
2022-12-07T13:55:03.077Z,2.37
2022-12-07T13:57:35.494Z,2.36
2022-12-07T14:00:08.196Z,2.18
2022-12-07T14:02:42.584Z,2.26
2022-12-07T14:05:25.007Z,2.21
2022-12-07T14:08:00.618Z,2.06
2022-12-07T14:10:33.068Z,2.17
2022-12-07T14:13:04.298Z,1.97
2022-12-07T14:15:36.608Z,2.04
2022-12-07T14:18:06.250Z,2.09
2022-12-07T14:20:38.339Z,2.14
2022-12-07T14:23:22.925Z,1.99
2022-12-07T14:25:55.131Z,2.10
2022-12-07T14:28:32.000Z,2.13
2022-12-07T14:31:01.934Z,2.13
2022-12-07T14:33:31.164Z,2.15
2022-12-07T14:36:01.125Z,2.17
2022-12-07T14:38:30.202Z,2.14
2022-12-07T14:41:21.288Z,2.10
2022-12-07T14:44:21.270Z,2.14
2022-12-07T14:46:41.617Z,2.14
2022-12-07T14:54:50.357Z,2.20
2022-12-07T14:57:21.306Z,2.15
2022-12-07T14:59:50.455Z,2.14
2022-12-07T15:02:19.792Z,2.15
2022-12-07T15:04:49.055Z,2.09
2022-12-07T15:07:22.480Z,2.08
2022-12-07T15:09:52.140Z,2.11
2022-12-07T15:12:22.936Z,2.15
2022-12-07T15:14:52.016Z,2.03
2022-12-07T15:17:31.289Z,2.07
2022-12-07T15:20:01.227Z,2.08
2022-12-07T15:22:37.923Z,2.02
2022-12-07T15:25:08.374Z,2.01
2022-12-07T15:27:39.379Z,2.04
2022-12-07T15:30:09.779Z,1.97
2022-12-07T15:32:39.552Z,1.97
2022-12-07T15:35:09.712Z,2.00
2022-12-07T15:37:40.258Z,1.95
2022-12-07T15:40:10.742Z,1.86
2022-12-07T15:42:43.834Z,1.97
2022-12-07T15:45:14.611Z,1.89
2022-12-07T15:48:26.071Z,1.92
2022-12-07T15:50:35.836Z,1.88
2022-12-07T15:53:05.387Z,1.93
2022-12-07T15:55:34.593Z,2.01
2022-12-07T15:58:05.665Z,1.95
2022-12-07T16:00:34.852Z,1.86
2022-12-07T16:03:04.370Z,1.97
2022-12-07T16:05:34.432Z,2.00
2022-12-07T16:08:03.900Z,1.91
2022-12-07T16:10:33.227Z,1.87
2022-12-07T16:13:04.354Z,1.81
2022-12-07T16:15:33.794Z,1.81
2022-12-07T16:18:03.645Z,1.80
2022-12-07T16:20:33.222Z,1.81
2022-12-07T16:23:02.961Z,1.71
2022-12-07T16:25:32.174Z,1.65
2022-12-07T16:28:05.470Z,1.72
2022-12-07T16:30:37.093Z,1.77
2022-12-07T16:33:07.071Z,1.77
2022-12-07T16:35:36.279Z,1.79
2022-12-07T16:38:05.834Z,1.85
2022-12-07T16:40:35.025Z,1.85
2022-12-07T16:43:04.901Z,1.88
2022-12-07T16:45:35.732Z,1.79
2022-12-07T16:48:05.643Z,1.84
2022-12-07T16:50:34.750Z,1.83
2022-12-07T16:53:04.339Z,1.85
2022-12-07T16:55:34.237Z,1.81
2022-12-07T16:58:05.940Z,1.70
2022-12-07T17:00:37.177Z,1.72
2022-12-07T17:03:07.134Z,1.47
2022-12-07T17:05:39.514Z,1.60
2022-12-07T17:08:09.674Z,1.70
2022-12-07T17:10:40.959Z,1.68
2022-12-07T17:13:25.500Z,1.53
2022-12-07T17:16:00.751Z,1.50
2022-12-07T17:18:31.204Z,1.42
2022-12-07T17:21:06.000Z,1.41
2022-12-07T17:23:37.010Z,1.34
2022-12-07T17:26:10.521Z,1.33
2022-12-07T17:28:40.536Z,1.22
2022-12-07T17:31:13.837Z,1.31
2022-12-07T17:33:43.434Z,1.26
2022-12-07T17:36:13.728Z,1.31
2022-12-07T17:38:44.218Z,1.47
2022-12-07T17:41:34.923Z,1.52
2022-12-07T17:44:06.395Z,1.46
2022-12-07T17:46:37.550Z,1.36
2022-12-07T17:49:07.767Z,1.45
2022-12-07T17:51:55.187Z,1.50
2022-12-07T17:54:30.292Z,1.35
2022-12-07T17:56:59.748Z,1.24
2022-12-07T17:59:29.194Z,1.20
2022-12-07T18:01:59.917Z,1.15
2022-12-07T18:04:29.408Z,1.19
2022-12-07T18:06:58.573Z,1.16
2022-12-07T18:09:28.073Z,1.11
2022-12-07T18:11:57.300Z,1.20
2022-12-07T18:14:27.100Z,1.28
2022-12-07T18:16:56.523Z,1.06
2022-12-07T18:19:27.770Z,1.15
2022-12-07T18:21:58.422Z,1.18
2022-12-07T18:24:34.799Z,1.10
2022-12-07T18:27:06.494Z,1.20
2022-12-07T18:29:36.348Z,1.24
2022-12-07T18:32:06.138Z,1.31
2022-12-07T18:34:38.479Z,1.28
2022-12-07T18:37:22.620Z,1.25
2022-12-07T18:39:52.347Z,1.32
2022-12-07T18:42:21.476Z,1.34
2022-12-07T18:44:51.097Z,1.35
2022-12-07T18:47:20.297Z,1.34
2022-12-07T18:49:51.077Z,1.36
2022-12-07T18:52:20.213Z,1.40
2022-12-07T18:54:49.639Z,1.41
2022-12-07T18:57:18.819Z,1.41
2022-12-07T18:59:49.993Z,1.40
2022-12-07T19:02:20.159Z,1.31
2022-12-07T19:04:51.657Z,1.38
2022-12-07T19:07:28.364Z,1.41
2022-12-07T19:10:17.031Z,1.34
2022-12-07T19:12:46.693Z,1.29
2022-12-07T19:15:17.448Z,1.36
2022-12-07T19:17:46.618Z,1.34
2022-12-07T19:20:18.003Z,1.31
2022-12-07T19:22:47.156Z,1.25
2022-12-07T19:25:16.798Z,1.33
2022-12-07T19:27:46.071Z,1.28
2022-12-07T19:30:16.087Z,1.33
2022-12-07T19:32:45.495Z,1.41
2022-12-07T19:35:16.484Z,1.40
2022-12-07T19:37:46.429Z,1.40
2022-12-07T19:40:16.026Z,1.36
2022-12-07T19:42:45.329Z,1.36
2022-12-07T19:45:14.905Z,1.28
2022-12-07T19:47:44.313Z,1.36
2022-12-07T19:50:14.208Z,1.34
2022-12-07T19:52:44.749Z,1.27
2022-12-07T19:55:14.192Z,1.24
2022-12-07T19:57:43.413Z,1.20
2022-12-07T20:00:14.009Z,1.20
2022-12-07T20:02:43.113Z,1.12
2022-12-07T20:05:13.273Z,1.17
2022-12-07T20:07:43.998Z,0.98
2022-12-07T20:10:13.603Z,1.20
2022-12-07T20:13:06.521Z,1.18
2022-12-07T20:15:39.258Z,1.17
2022-12-07T20:18:08.977Z,1.20
2022-12-07T20:20:38.445Z,1.31
2022-12-07T20:23:09.036Z,1.18
2022-12-07T20:25:38.499Z,1.17
2022-12-07T20:28:07.859Z,1.16
2022-12-07T20:30:38.052Z,1.05
2022-12-07T20:33:07.785Z,1.10
2022-12-07T20:35:37.214Z,1.07
2022-12-07T20:38:06.503Z,1.10
2022-12-07T20:40:37.456Z,0.96
2022-12-07T20:43:09.593Z,0.98
2022-12-07T20:45:45.090Z,0.99
2022-12-07T20:48:14.778Z,0.89
2022-12-07T20:50:44.657Z,0.93
2022-12-07T20:53:13.807Z,0.78
2022-12-07T20:55:44.759Z,0.86
2022-12-07T20:58:14.154Z,0.73
2022-12-07T21:00:43.730Z,0.82
2022-12-07T21:03:12.872Z,0.88
2022-12-07T21:05:47.443Z,0.88
2022-12-07T21:08:19.800Z,0.79
2022-12-07T21:10:50.730Z,0.78
2022-12-07T21:13:19.854Z,0.80
2022-12-07T21:15:49.379Z,0.82
2022-12-07T21:18:18.555Z,0.78
2022-12-07T21:20:47.955Z,0.70
2022-12-07T21:23:17.079Z,0.69
2022-12-07T21:25:46.562Z,0.72
2022-12-07T21:28:17.144Z,0.71
2022-12-07T21:31:12.188Z,0.71
2022-12-07T21:33:37.250Z,0.63
2022-12-07T21:36:07.796Z,0.54
2022-12-07T21:38:37.474Z,0.66
2022-12-07T21:41:14.319Z,0.71
2022-12-07T21:43:45.647Z,0.71
2022-12-07T21:46:15.756Z,0.68
2022-12-07T21:48:45.355Z,0.70
2022-12-07T21:51:15.708Z,0.54
2022-12-07T21:53:44.999Z,0.52
2022-12-07T21:56:17.586Z,0.57
2022-12-07T21:58:49.139Z,0.55
2022-12-07T22:01:20.142Z,0.60
2022-12-07T22:03:50.215Z,0.44
2022-12-07T22:06:20.479Z,0.49
2022-12-07T22:08:49.676Z,0.54
2022-12-07T22:11:20.309Z,0.60
2022-12-07T22:14:10.523Z,0.57
2022-12-07T22:16:40.910Z,0.59
2022-12-07T22:19:10.591Z,0.68
2022-12-07T22:21:40.097Z,0.65
2022-12-07T22:24:11.281Z,0.72
2022-12-07T22:26:40.896Z,0.78
2022-12-07T22:29:12.074Z,0.72
2022-12-07T22:31:42.126Z,0.75
2022-12-07T22:34:16.944Z,0.73
2022-12-07T22:36:46.900Z,0.74
2022-12-07T22:39:16.127Z,0.70
2022-12-07T22:41:45.789Z,0.76
2022-12-07T22:44:16.356Z,0.68
2022-12-07T22:46:46.221Z,0.75
2022-12-07T22:49:15.401Z,0.66
2022-12-07T22:51:45.114Z,0.59
2022-12-07T22:54:18.210Z,0.60
2022-12-07T22:56:47.919Z,0.65
2022-12-07T22:59:18.681Z,0.57
2022-12-07T23:01:48.139Z,0.55
2022-12-07T23:04:17.801Z,0.42
2022-12-07T23:06:47.371Z,0.49
2022-12-07T23:09:16.462Z,0.54
2022-12-07T23:12:03.279Z,0.63
2022-12-07T23:14:36.185Z,0.68
2022-12-07T23:17:05.909Z,0.45
2022-12-07T23:19:35.080Z,0.45
2022-12-07T23:22:04.496Z,0.39
2022-12-07T23:24:33.687Z,0.45
2022-12-07T23:27:03.174Z,0.44
2022-12-07T23:29:33.654Z,0.41
2022-12-07T23:32:03.165Z,0.47
2022-12-07T23:34:32.467Z,0.54
2022-12-07T23:37:01.925Z,0.54
2022-12-07T23:39:31.143Z,0.53
2022-12-07T23:42:00.619Z,0.50
2022-12-07T23:44:29.955Z,0.57
2022-12-07T23:47:00.845Z,0.50
2022-12-07T23:49:30.247Z,0.40
2022-12-07T23:51:59.647Z,0.39
2022-12-07T23:54:28.748Z,0.42
2022-12-07T23:56:58.163Z,0.45
2022-12-07T23:59:27.234Z,0.49
